Time;durP1;ratioP1;P1;durP2;ratioP2;P2;SDS_P1;SDS_P2;PMS_P1;PMS_P2;Temp;Humidity;BMP_temperature;BMP_pressure;BME280_temperature;BME280_humidity;BME280_pressure;Samples;Min_cycle;Max_cycle;Signal;HPM_P1;HPM_P2
2022/10/10 00:01:54;;;;;;;;;;;;;;;;;;5070963;28;19952;-67
2022/10/10 00:04:19;;;;;;;;;;;;;;;;;;5065978;28;19920;-67
2022/10/10 00:06:44;;;;;;;;;;;;;;;;;;5061164;28;20410;-67
2022/10/10 00:09:09;;;;;;;;;;;;;;;;;;5060173;28;19916;-67
2022/10/10 00:11:34;;;;;;;;;;;;;;;;;;5087544;28;19916;-67
2022/10/10 00:14:00;;;;;;;;;;;;;;;;;;5091749;28;19959;-67
2022/10/10 00:16:25;;;;;;;;;;;;;;;;;;5067026;28;19919;-67
2022/10/10 00:18:51;;;;;;;;;;;;;;;;;;5065662;28;20435;-67
2022/10/10 00:21:16;;;;;;;;;;;;;;;;;;5067090;28;19924;-67
2022/10/10 00:23:41;;;;;;;;;;;;;;;;;;5057689;28;19928;-67
2022/10/10 00:26:06;;;;;;;;;;;;;;;;;;5096108;28;19912;-67
2022/10/10 00:28:31;;;;;;;;;;;;;;;;;;5071644;28;19954;-66
2022/10/10 00:30:56;;;;;;;;;;;;;;;;;;5071133;28;19912;-66
2022/10/10 00:33:21;;;;;;;;;;;;;;;;;;5069054;28;19912;-66
2022/10/10 00:35:46;;;;;;;;;;;;;;;;;;5069420;28;19913;-66
2022/10/10 00:38:12;;;;;;;;;;;;;;;;;;5066918;28;20058;-65
2022/10/10 00:40:38;;;;;;;;;;;;;;;;;;5063841;28;19924;-66
2022/10/10 00:43:03;;;;;;;;;;;;;;;;;;5065097;28;19912;-67
2022/10/10 00:45:28;;;;;;;;;;;;;;;;;;5072123;28;20019;-67
2022/10/10 00:47:53;;;;;;;;;;;;;;;;;;5090667;28;19913;-67
2022/10/10 00:50:18;;;;;;;;;;;;;;;;;;5094262;28;20383;-67
2022/10/10 00:52:44;;;;;;;;;;;;;;;;;;5066815;28;19917;-67
2022/10/10 00:55:09;;;;;;;;;;;;;;;;;;5069339;28;19909;-67
2022/10/10 00:57:34;;;;;;;;;;;;;;;;;;5099078;28;20281;-67
2022/10/10 00:59:59;;;;;;;;;;;;;;;;;;5052621;28;19909;-66
2022/10/10 01:02:24;;;;;;;;;;;;;;;;;;5080490;28;19927;-67
2022/10/10 01:04:49;;;;;;;;;;;;;;;;;;5063011;28;19951;-66
2022/10/10 01:07:15;;;;;;;;;;;;;;;;;;5061962;28;19919;-67
2022/10/10 01:09:40;;;;;;;;;;;;;;;;;;5067853;28;19908;-67
2022/10/10 01:12:05;;;;;;;;;;;;;;;;;;5099544;28;20806;-66
2022/10/10 01:14:30;;;;;;;;;;;;;;;;;;5069279;28;19915;-67
2022/10/10 01:16:55;;;;;;;;;;;;;;;;;;5064580;28;19916;-67
2022/10/10 01:19:20;;;;;;;;;;;;;;;;;;5055163;28;19977;-67
2022/10/10 01:21:45;;;;;;;;;;;;;;;;;;5064600;28;19969;-68
2022/10/10 01:24:10;;;;;;;;;;;;;;;;;;5101422;28;19966;-67
2022/10/10 01:26:36;;;;;;;;;;;;;;;;;;5068546;28;19920;-68
2022/10/10 01:29:01;;;;;;;;;;;;;;;;;;5067141;28;19919;-67
2022/10/10 01:31:26;;;;;;;;;;;;;;;;;;5071660;28;19923;-68
2022/10/10 01:33:51;;;;;;;;;;;;;;;;;;5072720;28;20375;-66
2022/10/10 01:36:16;;;;;;;;;;;;;;;;;;5070771;28;19924;-68
2022/10/10 01:38:41;;;;;;;;;;;;;;;;;;5108982;27;20299;-67
2022/10/10 01:41:06;;;;;;;;;;;;;;;;;;5065901;28;19963;-67
2022/10/10 01:43:32;;;;;;;;;;;;;;;;;;5067699;28;20326;-66
2022/10/10 01:45:57;;;;;;;;;;;;;;;;;;5067498;28;19955;-67
2022/10/10 01:48:22;;;;;;;;;;;;;;;;;;5097498;28;20416;-66
2022/10/10 01:50:48;;;;;;;;;;;;;;;;;;5098346;27;19917;-66
2022/10/10 01:53:13;;;;;;;;;;;;;;;;;;5067103;28;19916;-67
2022/10/10 01:55:38;;;;;;;;;;;;;;;;;;5086517;28;19920;-66
2022/10/10 01:58:03;;;;;;;;;;;;;;;;;;5069359;28;19960;-66
2022/10/10 02:00:28;;;;;;;;;;;;;;;;;;5103956;27;20351;-67
2022/10/10 02:02:54;;;;;;;;;;;;;;;;;;5098117;28;19920;-67
2022/10/10 02:05:19;;;;;;;;;;;;;;;;;;5101470;28;19920;-66
2022/10/10 02:07:44;;;;;;;;;;;;;;;;;;5082589;28;19912;-67
2022/10/10 02:10:09;;;;;;;;;;;;;;;;;;5096733;28;20071;-67
2022/10/10 02:12:34;;;;;;;;;;;;;;;;;;5061319;28;19913;-66
2022/10/10 02:14:59;;;;;;;;;;;;;;;;;;5071691;28;20281;-66
2022/10/10 02:17:24;;;;;;;;;;;;;;;;;;5067879;28;20380;-67
2022/10/10 02:19:50;;;;;;;;;;;;;;;;;;5095556;28;19924;-66
2022/10/10 02:22:15;;;;;;;;;;;;;;;;;;5092243;28;19952;-67
2022/10/10 02:24:40;;;;;;;;;;;;;;;;;;5070558;28;20448;-66
2022/10/10 02:27:05;;;;;;;;;;;;;;;;;;5075995;28;19919;-66
2022/10/10 02:29:30;;;;;;;;;;;;;;;;;;5100228;28;19917;-67
2022/10/10 02:31:55;;;;;;;;;;;;;;;;;;5061703;28;19913;-67
2022/10/10 02:34:20;;;;;;;;;;;;;;;;;;5067171;28;21737;-66
2022/10/10 02:36:46;;;;;;;;;;;;;;;;;;5061498;28;19913;-66
2022/10/10 02:39:11;;;;;;;;;;;;;;;;;;5059005;28;19913;-66
2022/10/10 02:41:36;;;;;;;;;;;;;;;;;;5067358;28;19926;-67
2022/10/10 02:44:01;;;;;;;;;;;;;;;;;;5065225;28;19912;-66
2022/10/10 02:46:26;;;;;;;;;;;;;;;;;;5101503;28;19920;-67
2022/10/10 02:48:51;;;;;;;;;;;;;;;;;;5100254;28;19938;-66
2022/10/10 02:51:16;;;;;;;;;;;;;;;;;;5068646;28;19955;-67
2022/10/10 02:53:41;;;;;;;;;;;;;;;;;;5068361;28;19919;-67
2022/10/10 02:56:07;;;;;;;;;;;;;;;;;;5105698;27;19966;-67
2022/10/10 02:58:32;;;;;;;;;;;;;;;;;;5072181;28;19917;-67
2022/10/10 03:00:57;;;;;;;;;;;;;;;;;;5070205;28;19912;-67
2022/10/10 03:03:22;;;;;;;;;;;;;;;;;;5065676;28;19947;-68
2022/10/10 03:05:47;;;;;;;;;;;;;;;;;;5099577;28;19943;-66
2022/10/10 03:08:12;;;;;;;;;;;;;;;;;;5070839;28;19916;-66
2022/10/10 03:10:37;;;;;;;;;;;;;;;;;;5069316;28;19925;-67
2022/10/10 03:13:03;;;;;;;;;;;;;;;;;;5105186;27;19919;-66
2022/10/10 03:15:28;;;;;;;;;;;;;;;;;;5064095;28;19913;-67
2022/10/10 03:17:53;;;;;;;;;;;;;;;;;;5061351;28;20385;-67
2022/10/10 03:20:18;;;;;;;;;;;;;;;;;;5065219;28;20304;-67
2022/10/10 03:22:43;;;;;;;;;;;;;;;;;;5060513;28;19917;-67
2022/10/10 03:25:08;;;;;;;;;;;;;;;;;;5099102;28;20270;-67
2022/10/10 03:27:33;;;;;;;;;;;;;;;;;;5059689;28;20400;-67
2022/10/10 03:29:58;;;;;;;;;;;;;;;;;;5070557;28;19924;-67
2022/10/10 03:32:24;;;;;;;;;;;;;;;;;;5111005;27;19919;-67
2022/10/10 03:34:49;;;;;;;;;;;;;;;;;;5075905;28;20265;-67
2022/10/10 03:37:14;;;;;;;;;;;;;;;;;;5061754;28;19921;-67
2022/10/10 03:39:39;;;;;;;;;;;;;;;;;;5057958;28;19916;-67
2022/10/10 03:42:04;;;;;;;;;;;;;;;;;;5102485;28;20328;-67
2022/10/10 03:44:29;;;;;;;;;;;;;;;;;;5096019;28;20257;-67
2022/10/10 03:46:54;;;;;;;;;;;;;;;;;;5098863;28;19913;-67
2022/10/10 03:49:19;;;;;;;;;;;;;;;;;;5065692;28;19927;-67
2022/10/10 03:51:45;;;;;;;;;;;;;;;;;;5068967;28;20387;-67
2022/10/10 03:54:10;;;;;;;;;;;;;;;;;;5067784;28;19920;-67
2022/10/10 03:56:35;;;;;;;;;;;;;;;;;;5070900;28;19934;-66
2022/10/10 03:59:02;;;;;;;;;;;;;;;;;;5096951;28;19919;-65
2022/10/10 04:01:28;;;;;;;;;;;;;;;;;;5070096;28;19951;-68
2022/10/10 04:03:54;;;;;;;;;;;;;;;;;;5059319;28;19981;-67
2022/10/10 04:06:19;;;;;;;;;;;;;;;;;;5068644;28;20319;-67
2022/10/10 04:08:44;;;;;;;;;;;;;;;;;;5075030;28;19955;-67
2022/10/10 04:11:09;;;;;;;;;;;;;;;;;;5063569;28;19986;-67
2022/10/10 04:13:34;;;;;;;;;;;;;;;;;;5093610;28;20293;-67
2022/10/10 04:16:00;;;;;;;;;;;;;;;;;;5071851;28;19916;-67
2022/10/10 04:18:25;;;;;;;;;;;;;;;;;;5066598;28;19920;-67
2022/10/10 04:20:50;;;;;;;;;;;;;;;;;;5057533;28;19956;-66
2022/10/10 04:23:15;;;;;;;;;;;;;;;;;;5056882;28;19912;-67
2022/10/10 04:25:40;;;;;;;;;;;;;;;;;;5064435;28;20269;-67
2022/10/10 04:28:05;;;;;;;;;;;;;;;;;;5060433;28;20334;-67
2022/10/10 04:30:31;;;;;;;;;;;;;;;;;;5064311;28;19919;-67
2022/10/10 04:32:56;;;;;;;;;;;;;;;;;;5069388;28;19919;-68
2022/10/10 04:35:21;;;;;;;;;;;;;;;;;;5068896;28;19913;-70
2022/10/10 04:37:46;;;;;;;;;;;;;;;;;;5075910;28;20015;-71
2022/10/10 04:40:11;;;;;;;;;;;;;;;;;;5057105;28;19913;-74
2022/10/10 04:42:36;;;;;;;;;;;;;;;;;;5097497;28;19912;-74
2022/10/10 04:45:01;;;;;;;;;;;;;;;;;;5098038;28;19916;-74
2022/10/10 04:47:27;;;;;;;;;;;;;;;;;;5094786;28;19919;-74
2022/10/10 04:49:52;;;;;;;;;;;;;;;;;;5070716;28;20277;-73
2022/10/10 04:52:17;;;;;;;;;;;;;;;;;;5090983;28;19913;-74
2022/10/10 04:54:42;;;;;;;;;;;;;;;;;;5052888;28;20439;-74
2022/10/10 04:57:07;;;;;;;;;;;;;;;;;;5096108;28;20400;-75
2022/10/10 04:59:32;;;;;;;;;;;;;;;;;;5103245;28;19920;-74
2022/10/10 05:01:57;;;;;;;;;;;;;;;;;;5068230;28;20407;-75
2022/10/10 05:04:23;;;;;;;;;;;;;;;;;;5071171;28;19995;-73
2022/10/10 05:06:48;;;;;;;;;;;;;;;;;;5101043;28;19916;-73
2022/10/10 05:09:13;;;;;;;;;;;;;;;;;;5069687;28;19913;-74
2022/10/10 05:11:38;;;;;;;;;;;;;;;;;;5067063;28;19953;-74
2022/10/10 05:14:03;;;;;;;;;;;;;;;;;;5069838;28;19917;-74
2022/10/10 05:16:28;;;;;;;;;;;;;;;;;;5067264;28;19916;-75
2022/10/10 05:18:53;;;;;;;;;;;;;;;;;;5093294;28;20400;-74
2022/10/10 05:21:18;;;;;;;;;;;;;;;;;;5066093;28;19974;-74
2022/10/10 05:23:44;;;;;;;;;;;;;;;;;;5071632;28;19995;-74
2022/10/10 05:26:09;;;;;;;;;;;;;;;;;;5066670;28;19924;-75
2022/10/10 05:28:35;;;;;;;;;;;;;;;;;;5070344;28;19916;-75
2022/10/10 05:31:00;;;;;;;;;;;;;;;;;;5066763;28;19916;-73
2022/10/10 05:33:25;;;;;;;;;;;;;;;;;;5073357;28;20326;-74
2022/10/10 05:35:50;;;;;;;;;;;;;;;;;;5069743;28;19935;-75
2022/10/10 05:38:15;;;;;;;;;;;;;;;;;;5062690;28;20292;-75
2022/10/10 05:40:41;;;;;;;;;;;;;;;;;;5097891;28;19962;-75
2022/10/10 05:43:06;;;;;;;;;;;;;;;;;;5064297;28;19912;-75
2022/10/10 05:45:31;;;;;;;;;;;;;;;;;;5071476;28;20304;-74
2022/10/10 05:47:56;;;;;;;;;;;;;;;;;;5069727;28;20280;-75
2022/10/10 05:50:21;;;;;;;;;;;;;;;;;;5064859;28;20399;-75
2022/10/10 05:52:46;;;;;;;;;;;;;;;;;;5067115;28;19960;-75
2022/10/10 05:55:11;;;;;;;;;;;;;;;;;;5070413;28;19916;-74
2022/10/10 05:57:36;;;;;;;;;;;;;;;;;;5069694;28;19920;-74
2022/10/10 06:00:02;;;;;;;;;;;;;;;;;;5069402;28;20394;-73
2022/10/10 06:02:27;;;;;;;;;;;;;;;;;;5065497;28;19948;-73
2022/10/10 06:04:52;;;;;;;;;;;;;;;;;;5100619;28;19924;-73
2022/10/10 06:07:17;;;;;;;;;;;;;;;;;;5070746;28;19915;-75
2022/10/10 06:09:42;;;;;;;;;;;;;;;;;;5069922;28;19912;-74
2022/10/10 06:12:07;;;;;;;;;;;;;;;;;;5102362;28;19912;-75
2022/10/10 06:14:32;;;;;;;;;;;;;;;;;;5069847;28;19917;-74
2022/10/10 06:16:57;;;;;;;;;;;;;;;;;;5068921;28;19916;-74
2022/10/10 06:19:23;;;;;;;;;;;;;;;;;;5065774;28;19912;-75
2022/10/10 06:21:48;;;;;;;;;;;;;;;;;;5070235;28;19920;-74
2022/10/10 06:24:13;;;;;;;;;;;;;;;;;;5073493;28;19909;-73
2022/10/10 06:26:38;;;;;;;;;;;;;;;;;;5068878;28;19920;-75
2022/10/10 06:29:04;;;;;;;;;;;;;;;;;;5072580;28;19919;-74
2022/10/10 06:31:29;;;;;;;;;;;;;;;;;;5067282;28;19920;-74
2022/10/10 06:33:54;;;;;;;;;;;;;;;;;;5071330;28;19912;-75
2022/10/10 06:36:19;;;;;;;;;;;;;;;;;;5070417;28;20397;-75
2022/10/10 06:38:44;;;;;;;;;;;;;;;;;;5068775;28;20335;-73
2022/10/10 06:41:10;;;;;;;;;;;;;;;;;;5068972;28;20424;-74
2022/10/10 06:43:35;;;;;;;;;;;;;;;;;;5069654;28;19916;-73
2022/10/10 06:46:00;;;;;;;;;;;;;;;;;;5066695;28;19916;-74
2022/10/10 06:48:25;;;;;;;;;;;;;;;;;;5067615;28;20292;-74
2022/10/10 06:50:50;;;;;;;;;;;;;;;;;;5099741;28;19962;-74
2022/10/10 06:53:15;;;;;;;;;;;;;;;;;;5080560;28;20419;-74
2022/10/10 06:55:40;;;;;;;;;;;;;;;;;;5067240;28;20456;-74
2022/10/10 06:58:06;;;;;;;;;;;;;;;;;;5066394;28;19920;-74
2022/10/10 07:00:31;;;;;;;;;;;;;;;;;;5063578;28;20357;-74
2022/10/10 07:02:56;;;;;;;;;;;;;;;;;;5069141;28;19916;-74
2022/10/10 07:05:22;;;;;;;;;;;;;;;;;;5101247;28;19921;-72
2022/10/10 07:07:47;;;;;;;;;;;;;;;;;;5067681;28;19920;-73
2022/10/10 07:10:12;;;;;;;;;;;;;;;;;;5068801;28;20003;-72
2022/10/10 07:12:38;;;;;;;;;;;;;;;;;;5067696;28;19919;-72
2022/10/10 07:15:03;;;;;;;;;;;;;;;;;;5070004;28;19919;-73
2022/10/10 07:17:28;;;;;;;;;;;;;;;;;;5068568;28;20376;-74
2022/10/10 07:19:53;;;;;;;;;;;;;;;;;;5079614;28;19927;-73
2022/10/10 07:22:18;;;;;;;;;;;;;;;;;;5065284;28;19919;-75
2022/10/10 07:24:43;;;;;;;;;;;;;;;;;;5066305;28;19942;-74
2022/10/10 07:27:09;;;;;;;;;;;;;;;;;;5069683;28;19916;-74
2022/10/10 07:29:34;;;;;;;;;;;;;;;;;;5067987;28;19913;-74
2022/10/10 07:31:59;;;;;;;;;;;;;;;;;;5063783;28;20296;-73
2022/10/10 07:34:24;;;;;;;;;;;;;;;;;;5070875;28;20368;-74
2022/10/10 07:36:49;;;;;;;;;;;;;;;;;;5073274;28;20384;-74
2022/10/10 07:39:15;;;;;;;;;;;;;;;;;;5070349;28;20388;-72
2022/10/10 07:41:40;;;;;;;;;;;;;;;;;;5067838;28;19920;-74
2022/10/10 07:44:05;;;;;;;;;;;;;;;;;;5100808;27;20368;-73
2022/10/10 07:46:32;;;;;;;;;;;;;;;;;;5099002;28;19917;-74
2022/10/10 07:48:57;;;;;;;;;;;;;;;;;;5061080;28;20473;-73
2022/10/10 07:51:22;;;;;;;;;;;;;;;;;;5066755;28;19955;-74
2022/10/10 07:53:47;;;;;;;;;;;;;;;;;;5071841;28;19909;-73
2022/10/10 07:56:12;;;;;;;;;;;;;;;;;;5071573;28;19915;-74
2022/10/10 07:58:37;;;;;;;;;;;;;;;;;;5069465;28;20070;-74
2022/10/10 08:01:02;;;;;;;;;;;;;;;;;;5065795;28;19912;-74
2022/10/10 08:03:28;;;;;;;;;;;;;;;;;;5068437;28;19923;-73
2022/10/10 08:05:53;;;;;;;;;;;;;;;;;;5100223;28;19925;-73
2022/10/10 08:08:18;;;;;;;;;;;;;;;;;;5068038;28;20004;-73
2022/10/10 08:10:43;;;;;;;;;;;;;;;;;;5065795;28;19919;-74
2022/10/10 08:13:08;;;;;;;;;;;;;;;;;;5070050;28;19919;-73
2022/10/10 08:15:33;;;;;;;;;;;;;;;;;;5070078;28;19919;-73
2022/10/10 08:17:59;;;;;;;;;;;;;;;;;;5072283;28;19991;-74
2022/10/10 08:20:24;;;;;;;;;;;;;;;;;;5062969;28;19921;-73
2022/10/10 08:22:49;;;;;;;;;;;;;;;;;;5069917;28;19920;-72
2022/10/10 08:25:14;;;;;;;;;;;;;;;;;;5098488;28;19923;-72
2022/10/10 08:27:39;;;;;;;;;;;;;;;;;;5067948;28;19965;-73
2022/10/10 08:30:04;;;;;;;;;;;;;;;;;;5096913;28;20206;-72
2022/10/10 08:32:29;;;;;;;;;;;;;;;;;;5099851;28;19927;-73
2022/10/10 08:34:54;;;;;;;;;;;;;;;;;;5072804;28;19927;-73
2022/10/10 08:37:20;;;;;;;;;;;;;;;;;;5074001;28;19950;-73
2022/10/10 08:39:45;;;;;;;;;;;;;;;;;;5073349;28;19912;-72
2022/10/10 08:42:10;;;;;;;;;;;;;;;;;;5070025;28;20331;-72
2022/10/10 08:44:35;;;;;;;;;;;;;;;;;;5070207;28;19920;-73
2022/10/10 08:47:00;;;;;;;;;;;;;;;;;;5098563;28;19928;-74
2022/10/10 08:49:26;;;;;;;;;;;;;;;;;;5066951;28;20007;-74
2022/10/10 08:51:51;;;;;;;;;;;;;;;;;;5073221;28;20231;-74
2022/10/10 08:54:16;;;;;;;;;;;;;;;;;;5073408;28;19916;-73
2022/10/10 08:56:41;;;;;;;;;;;;;;;;;;5071966;28;20018;-73
2022/10/10 08:59:06;;;;;;;;;;;;;;;;;;5071615;28;19959;-73
2022/10/10 09:01:32;;;;;;;;;;;;;;;;;;5072508;28;20319;-74
2022/10/10 09:03:57;;;;;;;;;;;;;;;;;;5071117;28;20269;-73
2022/10/10 09:06:22;;;;;;;;;;;;;;;;;;5073290;28;19912;-73
2022/10/10 09:08:47;;;;;;;;;;;;;;;;;;5073048;28;19934;-74
2022/10/10 09:11:12;;;;;;;;;;;;;;;;;;5074077;28;20373;-74
2022/10/10 09:13:37;;;;;;;;;;;;;;;;;;5067837;28;19963;-74
2022/10/10 09:16:03;;;;;;;;;;;;;;;;;;5073974;28;19923;-74
2022/10/10 09:18:28;;;;;;;;;;;;;;;;;;5068396;28;19917;-72
2022/10/10 09:20:53;;;;;;;;;;;;;;;;;;5102998;28;20037;-74
2022/10/10 09:23:18;;;;;;;;;;;;;;;;;;5072731;28;19916;-74
2022/10/10 09:25:44;;;;;;;;;;;;;;;;;;5075597;28;19928;-74
2022/10/10 09:28:09;;;;;;;;;;;;;;;;;;5081060;28;19948;-74
2022/10/10 09:30:34;;;;;;;;;;;;;;;;;;5070960;28;19921;-74
2022/10/10 09:32:59;;;;;;;;;;;;;;;;;;5069043;28;19916;-74
2022/10/10 09:35:24;;;;;;;;;;;;;;;;;;5103984;28;19913;-74
2022/10/10 09:37:50;;;;;;;;;;;;;;;;;;5072392;28;19912;-74
2022/10/10 09:40:15;;;;;;;;;;;;;;;;;;5071706;28;19923;-74
2022/10/10 09:42:40;;;;;;;;;;;;;;;;;;5069078;28;19936;-72
2022/10/10 09:45:05;;;;;;;;;;;;;;;;;;5072426;28;19913;-73
2022/10/10 09:47:30;;;;;;;;;;;;;;;;;;5071645;28;20007;-74
2022/10/10 09:49:55;;;;;;;;;;;;;;;;;;5066577;28;19936;-74
2022/10/10 09:52:21;;;;;;;;;;;;;;;;;;5070789;28;19912;-74
2022/10/10 09:54:48;;;;;;;;;;;;;;;;;;5097590;28;19909;-74
2022/10/10 09:57:13;;;;;;;;;;;;;;;;;;5066604;28;20297;-73
2022/10/10 09:59:38;;;;;;;;;;;;;;;;;;5069247;28;19913;-74
2022/10/10 10:02:03;;;;;;;;;;;;;;;;;;5069433;28;20042;-73
2022/10/10 10:04:28;;;;;;;;;;;;;;;;;;5065298;28;19913;-74
2022/10/10 10:06:53;;;;;;;;;;;;;;;;;;5098894;27;19916;-74
2022/10/10 10:09:19;;;;;;;;;;;;;;;;;;5063330;28;19913;-74
2022/10/10 10:11:44;;;;;;;;;;;;;;;;;;5103022;28;19912;-74
2022/10/10 10:14:09;;;;;;;;;;;;;;;;;;5062133;28;20455;-74
2022/10/10 10:16:34;;;;;;;;;;;;;;;;;;5067891;28;19916;-75
2022/10/10 10:18:59;;;;;;;;;;;;;;;;;;5085428;28;19971;-74
2022/10/10 10:21:25;;;;;;;;;;;;;;;;;;5066379;28;19920;-75
2022/10/10 10:23:50;;;;;;;;;;;;;;;;;;5066882;28;20309;-74
2022/10/10 10:26:15;;;;;;;;;;;;;;;;;;5071644;28;19917;-74
2022/10/10 10:28:40;;;;;;;;;;;;;;;;;;5070561;28;19917;-75
2022/10/10 10:31:05;;;;;;;;;;;;;;;;;;5073209;28;19919;-74
2022/10/10 10:33:30;;;;;;;;;;;;;;;;;;5069831;28;19942;-75
2022/10/10 10:35:55;;;;;;;;;;;;;;;;;;5059706;28;19912;-74
2022/10/10 10:38:20;;;;;;;;;;;;;;;;;;5069404;28;19952;-75
2022/10/10 10:40:46;;;;;;;;;;;;;;;;;;5065979;28;19920;-75
2022/10/10 10:43:11;;;;;;;;;;;;;;;;;;5069666;28;19908;-75
2022/10/10 10:45:36;;;;;;;;;;;;;;;;;;5082688;28;19966;-75
2022/10/10 10:48:01;;;;;;;;;;;;;;;;;;5089067;28;19920;-74
2022/10/10 10:50:26;;;;;;;;;;;;;;;;;;5067112;28;19990;-75
2022/10/10 10:52:51;;;;;;;;;;;;;;;;;;5065086;28;20040;-74
2022/10/10 10:55:16;;;;;;;;;;;;;;;;;;5075193;28;19912;-76
2022/10/10 10:57:42;;;;;;;;;;;;;;;;;;5081230;28;20010;-73
2022/10/10 11:00:07;;;;;;;;;;;;;;;;;;5074102;28;19917;-76
2022/10/10 11:02:32;;;;;;;;;;;;;;;;;;5072593;28;19916;-75
2022/10/10 11:04:57;;;;;;;;;;;;;;;;;;5072990;28;19923;-75
2022/10/10 11:07:23;;;;;;;;;;;;;;;;;;5070414;28;19919;-75
2022/10/10 11:09:48;;;;;;;;;;;;;;;;;;5104608;28;19919;-75
2022/10/10 11:12:13;;;;;;;;;;;;;;;;;;5072457;28;20288;-75
2022/10/10 11:14:38;;;;;;;;;;;;;;;;;;5101819;28;19919;-75
2022/10/10 11:17:03;;;;;;;;;;;;;;;;;;5065546;28;19959;-75
2022/10/10 11:19:28;;;;;;;;;;;;;;;;;;5100152;28;19923;-74
2022/10/10 11:21:53;;;;;;;;;;;;;;;;;;5071753;28;19916;-74
2022/10/10 11:24:19;;;;;;;;;;;;;;;;;;5071368;28;19917;-75
2022/10/10 11:26:44;;;;;;;;;;;;;;;;;;5066905;28;19924;-75
2022/10/10 11:29:09;;;;;;;;;;;;;;;;;;5064929;28;19912;-76
2022/10/10 11:31:34;;;;;;;;;;;;;;;;;;5098018;28;19920;-77
2022/10/10 11:33:59;;;;;;;;;;;;;;;;;;5105528;28;19912;-76
2022/10/10 11:36:24;;;;;;;;;;;;;;;;;;5070390;28;19913;-76
2022/10/10 11:38:49;;;;;;;;;;;;;;;;;;5102122;28;19916;-75
2022/10/10 11:41:15;;;;;;;;;;;;;;;;;;5100400;28;19920;-75
2022/10/10 11:43:40;;;;;;;;;;;;;;;;;;5102942;28;19916;-75
2022/10/10 11:46:05;;;;;;;;;;;;;;;;;;5102702;28;19916;-74
2022/10/10 11:48:30;;;;;;;;;;;;;;;;;;5101435;28;19919;-75
2022/10/10 11:50:55;;;;;;;;;;;;;;;;;;5083926;28;19999;-75
2022/10/10 11:53:20;;;;;;;;;;;;;;;;;;5070230;28;19935;-74
2022/10/10 11:55:45;;;;;;;;;;;;;;;;;;5069952;28;20369;-75
2022/10/10 11:58:11;;;;;;;;;;;;;;;;;;5102136;28;19912;-75
2022/10/10 12:00:36;;;;;;;;;;;;;;;;;;5066303;28;19920;-75
2022/10/10 12:03:01;;;;;;;;;;;;;;;;;;5069669;28;19919;-75
2022/10/10 12:05:26;;;;;;;;;;;;;;;;;;5064885;28;19917;-75
2022/10/10 12:07:51;;;;;;;;;;;;;;;;;;5087494;28;19913;-75
2022/10/10 12:10:16;;;;;;;;;;;;;;;;;;5099191;28;19916;-75
2022/10/10 12:12:42;;;;;;;;;;;;;;;;;;5069529;28;20130;-75
2022/10/10 12:15:09;;;;;;;;;;;;;;;;;;5072717;28;20297;-75
2022/10/10 12:17:34;;;;;;;;;;;;;;;;;;5064127;28;20314;-75
2022/10/10 12:19:59;;;;;;;;;;;;;;;;;;5061664;28;19974;-75
2022/10/10 12:22:24;;;;;;;;;;;;;;;;;;5063468;28;20361;-75
2022/10/10 12:24:49;;;;;;;;;;;;;;;;;;5079190;28;19916;-75
2022/10/10 12:27:15;;;;;;;;;;;;;;;;;;5065789;28;19912;-75
2022/10/10 12:29:40;;;;;;;;;;;;;;;;;;5071044;28;19962;-75
2022/10/10 12:32:05;;;;;;;;;;;;;;;;;;5068435;28;19942;-74
2022/10/10 12:34:30;;;;;;;;;;;;;;;;;;5097332;28;19920;-75
2022/10/10 12:36:55;;;;;;;;;;;;;;;;;;5063888;28;19919;-72
2022/10/10 12:39:20;;;;;;;;;;;;;;;;;;5087173;28;20364;-75
2022/10/10 12:41:45;;;;;;;;;;;;;;;;;;5090973;28;19952;-72
2022/10/10 12:44:11;;;;;;;;;;;;;;;;;;5086675;28;19912;-73
2022/10/10 12:46:37;;;;;;;;;;;;;;;;;;5066707;28;20418;-75
2022/10/10 12:49:02;;;;;;;;;;;;;;;;;;5062633;28;19921;-73
2022/10/10 12:51:27;;;;;;;;;;;;;;;;;;5085477;28;19913;-73
2022/10/10 12:53:52;;;;;;;;;;;;;;;;;;5089531;28;20273;-69
2022/10/10 12:56:17;;;;;;;;;;;;;;;;;;5059977;28;20362;-74
2022/10/10 12:58:42;;;;;;;;;;;;;;;;;;5066131;28;19946;-75
2022/10/10 13:01:08;;;;;;;;;;;;;;;;;;5073060;28;20401;-76
2022/10/10 13:03:33;;;;;;;;;;;;;;;;;;5094525;28;19912;-76
2022/10/10 13:05:58;;;;;;;;;;;;;;;;;;5098122;28;20138;-75
2022/10/10 13:08:23;;;;;;;;;;;;;;;;;;5066455;28;19920;-76
2022/10/10 13:10:48;;;;;;;;;;;;;;;;;;5058974;28;19971;-77
2022/10/10 13:13:13;;;;;;;;;;;;;;;;;;5064965;28;20373;-76
2022/10/10 13:15:38;;;;;;;;;;;;;;;;;;5084306;28;19921;-76
2022/10/10 13:18:04;;;;;;;;;;;;;;;;;;5066299;28;19912;-76
2022/10/10 13:20:30;;;;;;;;;;;;;;;;;;5096583;28;19974;-77
2022/10/10 13:22:55;;;;;;;;;;;;;;;;;;5059413;28;19920;-76
2022/10/10 13:25:20;;;;;;;;;;;;;;;;;;5062809;28;19917;-77
2022/10/10 13:27:45;;;;;;;;;;;;;;;;;;5101093;28;19912;-76
2022/10/10 13:30:10;;;;;;;;;;;;;;;;;;5069910;28;19916;-77
2022/10/10 13:32:36;;;;;;;;;;;;;;;;;;5106151;28;19939;-77
2022/10/10 13:35:01;;;;;;;;;;;;;;;;;;5107249;28;19909;-76
2022/10/10 13:37:26;;;;;;;;;;;;;;;;;;5056853;28;20383;-76
2022/10/10 13:39:51;;;;;;;;;;;;;;;;;;5064478;28;19916;-77
2022/10/10 13:42:16;;;;;;;;;;;;;;;;;;5061167;28;20552;-76
2022/10/10 13:44:41;;;;;;;;;;;;;;;;;;5075249;28;19956;-76
2022/10/10 13:47:07;;;;;;;;;;;;;;;;;;5064945;28;20416;-76
2022/10/10 13:49:32;;;;;;;;;;;;;;;;;;5092554;28;19965;-76
2022/10/10 13:51:57;;;;;;;;;;;;;;;;;;5071954;28;19948;-76
2022/10/10 13:54:22;;;;;;;;;;;;;;;;;;5069875;28;19909;-77
2022/10/10 13:56:47;;;;;;;;;;;;;;;;;;5077650;28;19912;-77
2022/10/10 13:59:12;;;;;;;;;;;;;;;;;;5100567;28;20337;-78
2022/10/10 14:01:38;;;;;;;;;;;;;;;;;;5102695;28;20266;-75
2022/10/10 14:04:03;;;;;;;;;;;;;;;;;;5067318;28;19951;-72
2022/10/10 14:06:28;;;;;;;;;;;;;;;;;;5067792;28;19924;-69
2022/10/10 14:08:53;;;;;;;;;;;;;;;;;;5064257;28;19912;-65
2022/10/10 14:11:18;;;;;;;;;;;;;;;;;;5070798;28;19919;-75
2022/10/10 14:13:43;;;;;;;;;;;;;;;;;;5065947;28;20113;-71
2022/10/10 14:16:08;;;;;;;;;;;;;;;;;;5067744;28;19922;-70
2022/10/10 14:18:34;;;;;;;;;;;;;;;;;;5068869;28;20091;-67
2022/10/10 14:20:59;;;;;;;;;;;;;;;;;;5069674;28;19920;-79
2022/10/10 14:23:24;;;;;;;;;;;;;;;;;;5082814;28;20319;-71
2022/10/10 14:25:49;;;;;;;;;;;;;;;;;;5073531;28;19919;-75
2022/10/10 14:28:15;;;;;;;;;;;;;;;;;;5071346;28;20280;-75
2022/10/10 14:30:40;;;;;;;;;;;;;;;;;;5073678;28;19909;-75
2022/10/10 14:33:05;;;;;;;;;;;;;;;;;;5070290;28;20296;-72
2022/10/10 14:35:30;;;;;;;;;;;;;;;;;;5069539;28;19957;-68
2022/10/10 14:37:56;;;;;;;;;;;;;;;;;;5072159;28;20642;-77
2022/10/10 14:40:21;;;;;;;;;;;;;;;;;;5069581;28;19916;-76
2022/10/10 14:42:46;;;;;;;;;;;;;;;;;;5071243;28;19919;-72
2022/10/10 14:45:11;;;;;;;;;;;;;;;;;;5066872;28;19925;-74
2022/10/10 14:47:36;;;;;;;;;;;;;;;;;;5072297;28;20021;-76
2022/10/10 14:50:01;;;;;;;;;;;;;;;;;;5069528;28;20559;-76
2022/10/10 14:52:27;;;;;;;;;;;;;;;;;;5069864;28;19912;-76
2022/10/10 14:54:52;;;;;;;;;;;;;;;;;;5073159;28;19923;-74
2022/10/10 14:57:18;;;;;;;;;;;;;;;;;;5063343;28;19913;-76
2022/10/10 14:59:43;;;;;;;;;;;;;;;;;;5066204;28;19918;-75
2022/10/10 15:02:08;;;;;;;;;;;;;;;;;;5085963;28;20284;-76
2022/10/10 15:04:33;;;;;;;;;;;;;;;;;;5059259;28;19963;-75
2022/10/10 15:06:58;;;;;;;;;;;;;;;;;;5069164;28;19916;-76
2022/10/10 15:09:23;;;;;;;;;;;;;;;;;;5103406;28;19955;-76
2022/10/10 15:11:49;;;;;;;;;;;;;;;;;;5065308;28;19916;-75
2022/10/10 15:14:14;;;;;;;;;;;;;;;;;;5060443;28;20001;-75
2022/10/10 15:16:39;;;;;;;;;;;;;;;;;;5093601;28;19942;-75
2022/10/10 15:19:04;;;;;;;;;;;;;;;;;;5070238;28;20430;-76
2022/10/10 15:21:29;;;;;;;;;;;;;;;;;;5090719;28;20389;-75
2022/10/10 15:23:54;;;;;;;;;;;;;;;;;;5065414;28;19927;-76
2022/10/10 15:26:21;;;;;;;;;;;;;;;;;;5099346;28;20480;-75
2022/10/10 15:28:46;;;;;;;;;;;;;;;;;;5105241;28;20083;-76
2022/10/10 15:31:12;;;;;;;;;;;;;;;;;;5059572;28;19913;-76
2022/10/10 15:33:37;;;;;;;;;;;;;;;;;;5072091;28;19912;-70
2022/10/10 15:36:02;;;;;;;;;;;;;;;;;;5102246;28;19920;-73
2022/10/10 15:38:27;;;;;;;;;;;;;;;;;;5101286;28;20426;-74
2022/10/10 15:40:52;;;;;;;;;;;;;;;;;;5100355;28;20375;-76
2022/10/10 15:43:17;;;;;;;;;;;;;;;;;;5094158;28;19936;-75
2022/10/10 15:45:42;;;;;;;;;;;;;;;;;;5064052;28;19920;-76
2022/10/10 15:48:08;;;;;;;;;;;;;;;;;;5088450;28;20601;-77
2022/10/10 15:50:38;;;;;;;;;;;;;;;;;;5064760;28;19970;-75
2022/10/10 15:53:03;;;;;;;;;;;;;;;;;;5056029;28;20018;-75
2022/10/10 15:55:28;;;;;;;;;;;;;;;;;;5061491;28;20345;-74
2022/10/10 15:57:53;;;;;;;;;;;;;;;;;;5099799;28;19951;-75
2022/10/10 16:00:19;;;;;;;;;;;;;;;;;;5106158;27;19924;-76
2022/10/10 16:02:44;;;;;;;;;;;;;;;;;;5064291;28;20373;-76
2022/10/10 16:05:09;;;;;;;;;;;;;;;;;;5066064;28;19917;-76
2022/10/10 16:07:34;;;;;;;;;;;;;;;;;;5104299;28;19912;-76
2022/10/10 16:10:00;;;;;;;;;;;;;;;;;;5069969;28;20293;-76
2022/10/10 16:12:25;;;;;;;;;;;;;;;;;;5071536;28;20022;-70
2022/10/10 16:14:50;;;;;;;;;;;;;;;;;;5069364;28;20368;-75
2022/10/10 16:17:15;;;;;;;;;;;;;;;;;;5070738;28;19999;-74
2022/10/10 16:19:40;;;;;;;;;;;;;;;;;;5065492;28;20002;-76
2022/10/10 16:22:05;;;;;;;;;;;;;;;;;;5069285;28;20372;-74
2022/10/10 16:24:30;;;;;;;;;;;;;;;;;;5064076;28;19913;-75
2022/10/10 16:26:56;;;;;;;;;;;;;;;;;;5057823;28;19927;-76
2022/10/10 16:29:22;;;;;;;;;;;;;;;;;;5079751;28;19919;-76
2022/10/10 16:31:47;;;;;;;;;;;;;;;;;;5065031;28;19920;-73